sensor_id;sensor_type;location;lat;lon;timestamp;P1;durP1;ratioP1;P2;durP2;ratioP2
13425;SDS011;6785;57.918;12.530;2023-02-12T00:01:49;24.40;;;5.83;;
13425;SDS011;6785;57.918;12.530;2023-02-12T00:04:15;25.43;;;4.93;;
13425;SDS011;6785;57.918;12.530;2023-02-12T00:06:42;18.57;;;5.60;;
13425;SDS011;6785;57.918;12.530;2023-02-12T00:09:09;33.83;;;5.33;;
13425;SDS011;6785;57.918;12.530;2023-02-12T00:11:37;26.10;;;4.83;;
13425;SDS011;6785;57.918;12.530;2023-02-12T00:14:03;35.17;;;6.13;;
13425;SDS011;6785;57.918;12.530;2023-02-12T00:16:30;22.40;;;4.77;;
13425;SDS011;6785;57.918;12.530;2023-02-12T00:18:57;36.60;;;5.50;;
13425;SDS011;6785;57.918;12.530;2023-02-12T00:21:24;35.50;;;6.37;;
13425;SDS011;6785;57.918;12.530;2023-02-12T00:23:52;36.50;;;6.27;;
13425;SDS011;6785;57.918;12.530;2023-02-12T00:26:19;33.57;;;5.97;;
13425;SDS011;6785;57.918;12.530;2023-02-12T00:28:48;39.03;;;5.97;;
13425;SDS011;6785;57.918;12.530;2023-02-12T00:31:15;41.03;;;6.17;;
13425;SDS011;6785;57.918;12.530;2023-02-12T00:33:44;38.40;;;6.67;;
13425;SDS011;6785;57.918;12.530;2023-02-12T00:36:12;34.90;;;7.37;;
13425;SDS011;6785;57.918;12.530;2023-02-12T00:38:40;40.20;;;6.77;;
13425;SDS011;6785;57.918;12.530;2023-02-12T00:41:07;39.80;;;6.33;;
13425;SDS011;6785;57.918;12.530;2023-02-12T00:43:34;56.17;;;7.73;;
13425;SDS011;6785;57.918;12.530;2023-02-12T00:46:02;42.87;;;6.97;;
13425;SDS011;6785;57.918;12.530;2023-02-12T00:48:30;57.53;;;7.77;;
13425;SDS011;6785;57.918;12.530;2023-02-12T00:50:57;52.30;;;8.53;;
13425;SDS011;6785;57.918;12.530;2023-02-12T00:53:24;40.83;;;7.13;;
13425;SDS011;6785;57.918;12.530;2023-02-12T00:55:51;43.03;;;7.97;;
13425;SDS011;6785;57.918;12.530;2023-02-12T00:58:18;55.00;;;7.37;;
13425;SDS011;6785;57.918;12.530;2023-02-12T01:00:44;40.63;;;7.57;;
13425;SDS011;6785;57.918;12.530;2023-02-12T01:03:13;44.93;;;7.77;;
13425;SDS011;6785;57.918;12.530;2023-02-12T01:05:40;47.47;;;7.80;;
13425;SDS011;6785;57.918;12.530;2023-02-12T01:08:07;54.87;;;9.43;;
13425;SDS011;6785;57.918;12.530;2023-02-12T01:10:35;48.30;;;8.60;;
13425;SDS011;6785;57.918;12.530;2023-02-12T01:13:02;64.70;;;9.07;;
13425;SDS011;6785;57.918;12.530;2023-02-12T01:15:29;54.80;;;8.57;;
13425;SDS011;6785;57.918;12.530;2023-02-12T01:17:56;48.67;;;7.87;;
13425;SDS011;6785;57.918;12.530;2023-02-12T01:20:24;41.10;;;8.23;;
13425;SDS011;6785;57.918;12.530;2023-02-12T01:22:51;46.87;;;8.20;;
13425;SDS011;6785;57.918;12.530;2023-02-12T01:25:18;53.73;;;8.03;;
13425;SDS011;6785;57.918;12.530;2023-02-12T01:27:45;58.10;;;8.73;;
13425;SDS011;6785;57.918;12.530;2023-02-12T01:30:12;49.67;;;7.57;;
13425;SDS011;6785;57.918;12.530;2023-02-12T01:32:40;55.53;;;9.03;;
13425;SDS011;6785;57.918;12.530;2023-02-12T01:35:08;57.33;;;9.83;;
13425;SDS011;6785;57.918;12.530;2023-02-12T01:37:36;71.60;;;10.63;;
13425;SDS011;6785;57.918;12.530;2023-02-12T01:40:04;62.00;;;9.00;;
13425;SDS011;6785;57.918;12.530;2023-02-12T01:42:33;66.33;;;8.80;;
13425;SDS011;6785;57.918;12.530;2023-02-12T01:48:18;63.67;;;9.50;;
13425;SDS011;6785;57.918;12.530;2023-02-12T01:50:48;62.67;;;11.07;;
13425;SDS011;6785;57.918;12.530;2023-02-12T01:53:18;68.43;;;8.93;;
13425;SDS011;6785;57.918;12.530;2023-02-12T01:55:47;62.30;;;9.73;;
13425;SDS011;6785;57.918;12.530;2023-02-12T01:58:15;72.70;;;10.50;;
13425;SDS011;6785;57.918;12.530;2023-02-12T02:00:44;69.30;;;9.67;;
13425;SDS011;6785;57.918;12.530;2023-02-12T02:03:10;72.53;;;9.90;;
13425;SDS011;6785;57.918;12.530;2023-02-12T02:05:40;67.20;;;9.83;;
13425;SDS011;6785;57.918;12.530;2023-02-12T02:08:10;63.77;;;8.77;;
13425;SDS011;6785;57.918;12.530;2023-02-12T02:10:39;63.63;;;8.67;;
13425;SDS011;6785;57.918;12.530;2023-02-12T02:13:06;54.70;;;9.27;;
13425;SDS011;6785;57.918;12.530;2023-02-12T02:15:51;55.93;;;8.77;;
13425;SDS011;6785;57.918;12.530;2023-02-12T02:18:28;60.07;;;9.37;;
13425;SDS011;6785;57.918;12.530;2023-02-12T02:24:19;75.20;;;10.37;;
13425;SDS011;6785;57.918;12.530;2023-02-12T02:27:18;68.50;;;10.27;;
13425;SDS011;6785;57.918;12.530;2023-02-12T02:32:51;55.00;;;9.63;;
13425;SDS011;6785;57.918;12.530;2023-02-12T02:35:25;61.97;;;9.03;;
13425;SDS011;6785;57.918;12.530;2023-02-12T02:37:59;67.23;;;8.50;;
13425;SDS011;6785;57.918;12.530;2023-02-12T02:40:34;65.93;;;9.77;;
13425;SDS011;6785;57.918;12.530;2023-02-12T02:43:08;67.87;;;8.83;;
13425;SDS011;6785;57.918;12.530;2023-02-12T02:45:44;61.53;;;7.70;;
13425;SDS011;6785;57.918;12.530;2023-02-12T02:48:16;74.17;;;9.17;;
13425;SDS011;6785;57.918;12.530;2023-02-12T02:50:48;53.40;;;7.70;;
13425;SDS011;6785;57.918;12.530;2023-02-12T02:53:18;45.97;;;8.23;;
13425;SDS011;6785;57.918;12.530;2023-02-12T02:55:51;58.43;;;8.30;;
13425;SDS011;6785;57.918;12.530;2023-02-12T02:58:22;47.90;;;8.00;;
13425;SDS011;6785;57.918;12.530;2023-02-12T03:00:54;44.30;;;7.60;;
13425;SDS011;6785;57.918;12.530;2023-02-12T03:03:26;46.13;;;9.27;;
13425;SDS011;6785;57.918;12.530;2023-02-12T03:05:58;35.70;;;8.00;;
13425;SDS011;6785;57.918;12.530;2023-02-12T03:08:28;48.83;;;7.60;;
13425;SDS011;6785;57.918;12.530;2023-02-12T03:11:00;49.97;;;7.40;;
13425;SDS011;6785;57.918;12.530;2023-02-12T03:13:33;38.07;;;7.90;;
13425;SDS011;6785;57.918;12.530;2023-02-12T03:16:06;56.60;;;9.00;;
13425;SDS011;6785;57.918;12.530;2023-02-12T03:18:40;28.27;;;6.63;;
13425;SDS011;6785;57.918;12.530;2023-02-12T03:21:12;34.57;;;6.20;;
13425;SDS011;6785;57.918;12.530;2023-02-12T03:23:43;62.20;;;7.80;;
13425;SDS011;6785;57.918;12.530;2023-02-12T03:26:13;46.87;;;7.57;;
13425;SDS011;6785;57.918;12.530;2023-02-12T03:28:45;35.83;;;6.97;;
13425;SDS011;6785;57.918;12.530;2023-02-12T03:31:17;42.90;;;7.53;;
13425;SDS011;6785;57.918;12.530;2023-02-12T03:34:03;48.17;;;7.60;;
13425;SDS011;6785;57.918;12.530;2023-02-12T03:36:35;38.60;;;7.13;;
13425;SDS011;6785;57.918;12.530;2023-02-12T03:39:10;36.80;;;7.00;;
13425;SDS011;6785;57.918;12.530;2023-02-12T03:41:44;32.53;;;6.53;;
13425;SDS011;6785;57.918;12.530;2023-02-12T03:44:19;35.80;;;7.13;;
13425;SDS011;6785;57.918;12.530;2023-02-12T03:46:56;59.00;;;7.23;;
13425;SDS011;6785;57.918;12.530;2023-02-12T03:49:29;50.83;;;8.47;;
13425;SDS011;6785;57.918;12.530;2023-02-12T03:52:00;59.03;;;7.70;;
13425;SDS011;6785;57.918;12.530;2023-02-12T03:54:29;39.60;;;6.30;;
13425;SDS011;6785;57.918;12.530;2023-02-12T03:56:56;45.23;;;7.40;;
13425;SDS011;6785;57.918;12.530;2023-02-12T03:59:27;44.17;;;7.27;;
13425;SDS011;6785;57.918;12.530;2023-02-12T04:01:56;41.97;;;8.63;;
13425;SDS011;6785;57.918;12.530;2023-02-12T04:04:24;32.23;;;7.27;;
13425;SDS011;6785;57.918;12.530;2023-02-12T04:06:52;36.43;;;7.43;;
13425;SDS011;6785;57.918;12.530;2023-02-12T04:09:19;57.17;;;8.50;;
13425;SDS011;6785;57.918;12.530;2023-02-12T04:11:58;56.63;;;8.10;;
13425;SDS011;6785;57.918;12.530;2023-02-12T04:14:35;45.17;;;7.20;;
13425;SDS011;6785;57.918;12.530;2023-02-12T04:17:13;51.10;;;8.10;;
13425;SDS011;6785;57.918;12.530;2023-02-12T04:19:49;58.20;;;9.03;;
13425;SDS011;6785;57.918;12.530;2023-02-12T04:22:30;53.70;;;8.73;;
13425;SDS011;6785;57.918;12.530;2023-02-12T04:25:07;45.40;;;7.17;;
13425;SDS011;6785;57.918;12.530;2023-02-12T04:27:42;69.17;;;9.00;;
13425;SDS011;6785;57.918;12.530;2023-02-12T04:30:19;35.03;;;7.70;;
13425;SDS011;6785;57.918;12.530;2023-02-12T04:32:50;42.97;;;7.73;;
13425;SDS011;6785;57.918;12.530;2023-02-12T04:35:21;53.33;;;8.17;;
13425;SDS011;6785;57.918;12.530;2023-02-12T04:37:51;50.93;;;9.37;;
13425;SDS011;6785;57.918;12.530;2023-02-12T04:40:22;50.30;;;7.57;;
13425;SDS011;6785;57.918;12.530;2023-02-12T04:42:50;59.53;;;9.00;;
13425;SDS011;6785;57.918;12.530;2023-02-12T04:45:19;41.77;;;6.97;;
13425;SDS011;6785;57.918;12.530;2023-02-12T04:47:49;61.43;;;8.03;;
13425;SDS011;6785;57.918;12.530;2023-02-12T04:50:17;60.07;;;8.47;;
13425;SDS011;6785;57.918;12.530;2023-02-12T04:52:44;37.87;;;7.87;;
13425;SDS011;6785;57.918;12.530;2023-02-12T04:55:11;38.03;;;7.50;;
13425;SDS011;6785;57.918;12.530;2023-02-12T04:57:38;50.80;;;7.93;;
13425;SDS011;6785;57.918;12.530;2023-02-12T05:00:05;45.17;;;7.77;;
13425;SDS011;6785;57.918;12.530;2023-02-12T05:02:33;69.40;;;9.37;;
13425;SDS011;6785;57.918;12.530;2023-02-12T05:05:01;51.63;;;8.27;;
13425;SDS011;6785;57.918;12.530;2023-02-12T05:07:28;43.60;;;6.87;;
13425;SDS011;6785;57.918;12.530;2023-02-12T05:09:55;60.37;;;8.50;;
13425;SDS011;6785;57.918;12.530;2023-02-12T05:12:21;49.00;;;8.13;;
13425;SDS011;6785;57.918;12.530;2023-02-12T05:14:48;57.23;;;8.63;;
13425;SDS011;6785;57.918;12.530;2023-02-12T05:17:15;42.80;;;7.07;;
13425;SDS011;6785;57.918;12.530;2023-02-12T05:19:41;40.77;;;6.50;;
13425;SDS011;6785;57.918;12.530;2023-02-12T05:22:10;39.87;;;7.97;;
13425;SDS011;6785;57.918;12.530;2023-02-12T05:24:36;54.13;;;8.67;;
13425;SDS011;6785;57.918;12.530;2023-02-12T05:27:03;41.20;;;7.83;;
13425;SDS011;6785;57.918;12.530;2023-02-12T05:29:30;49.83;;;8.30;;
13425;SDS011;6785;57.918;12.530;2023-02-12T05:31:56;44.93;;;8.40;;
13425;SDS011;6785;57.918;12.530;2023-02-12T05:34:23;47.97;;;7.80;;
13425;SDS011;6785;57.918;12.530;2023-02-12T05:36:50;34.87;;;6.83;;
13425;SDS011;6785;57.918;12.530;2023-02-12T05:39:18;42.77;;;7.43;;
13425;SDS011;6785;57.918;12.530;2023-02-12T05:41:45;36.47;;;7.50;;
13425;SDS011;6785;57.918;12.530;2023-02-12T05:44:11;41.17;;;7.03;;
13425;SDS011;6785;57.918;12.530;2023-02-12T05:46:39;42.23;;;8.33;;
13425;SDS011;6785;57.918;12.530;2023-02-12T05:49:06;55.33;;;8.03;;
13425;SDS011;6785;57.918;12.530;2023-02-12T05:51:32;36.03;;;7.23;;
13425;SDS011;6785;57.918;12.530;2023-02-12T05:54:01;43.20;;;8.60;;
13425;SDS011;6785;57.918;12.530;2023-02-12T05:56:31;51.70;;;9.07;;
13425;SDS011;6785;57.918;12.530;2023-02-12T05:59:00;48.03;;;8.73;;
13425;SDS011;6785;57.918;12.530;2023-02-12T06:01:29;50.70;;;7.83;;
13425;SDS011;6785;57.918;12.530;2023-02-12T06:03:57;40.87;;;7.57;;
13425;SDS011;6785;57.918;12.530;2023-02-12T06:06:24;44.23;;;8.73;;
13425;SDS011;6785;57.918;12.530;2023-02-12T06:08:51;44.87;;;8.40;;
13425;SDS011;6785;57.918;12.530;2023-02-12T06:11:18;40.80;;;8.83;;
13425;SDS011;6785;57.918;12.530;2023-02-12T06:13:46;61.97;;;8.60;;
13425;SDS011;6785;57.918;12.530;2023-02-12T06:16:17;52.70;;;8.40;;
13425;SDS011;6785;57.918;12.530;2023-02-12T06:18:44;66.30;;;9.43;;
13425;SDS011;6785;57.918;12.530;2023-02-12T06:21:11;43.80;;;8.30;;
13425;SDS011;6785;57.918;12.530;2023-02-12T06:23:38;58.27;;;8.53;;
13425;SDS011;6785;57.918;12.530;2023-02-12T06:26:05;37.40;;;8.30;;
13425;SDS011;6785;57.918;12.530;2023-02-12T06:28:32;33.37;;;7.37;;
13425;SDS011;6785;57.918;12.530;2023-02-12T06:31:00;40.40;;;8.37;;
13425;SDS011;6785;57.918;12.530;2023-02-12T06:33:27;45.13;;;9.20;;
13425;SDS011;6785;57.918;12.530;2023-02-12T06:35:54;43.73;;;7.00;;
13425;SDS011;6785;57.918;12.530;2023-02-12T06:38:20;27.00;;;6.37;;
13425;SDS011;6785;57.918;12.530;2023-02-12T06:40:47;29.03;;;6.00;;
13425;SDS011;6785;57.918;12.530;2023-02-12T06:43:14;29.53;;;7.53;;
13425;SDS011;6785;57.918;12.530;2023-02-12T06:45:41;36.30;;;6.70;;
13425;SDS011;6785;57.918;12.530;2023-02-12T06:48:09;21.43;;;6.00;;
13425;SDS011;6785;57.918;12.530;2023-02-12T06:50:35;28.03;;;5.47;;
13425;SDS011;6785;57.918;12.530;2023-02-12T06:53:02;21.77;;;6.50;;
13425;SDS011;6785;57.918;12.530;2023-02-12T06:55:29;23.93;;;6.50;;
13425;SDS011;6785;57.918;12.530;2023-02-12T06:57:55;17.33;;;5.27;;
13425;SDS011;6785;57.918;12.530;2023-02-12T07:00:22;27.13;;;5.97;;
13425;SDS011;6785;57.918;12.530;2023-02-12T07:02:52;28.63;;;6.50;;
13425;SDS011;6785;57.918;12.530;2023-02-12T07:05:21;23.60;;;5.47;;
13425;SDS011;6785;57.918;12.530;2023-02-12T07:07:49;25.03;;;5.80;;
13425;SDS011;6785;57.918;12.530;2023-02-12T07:10:16;26.30;;;6.67;;
13425;SDS011;6785;57.918;12.530;2023-02-12T07:12:43;33.30;;;7.00;;
13425;SDS011;6785;57.918;12.530;2023-02-12T07:15:10;30.97;;;6.80;;
13425;SDS011;6785;57.918;12.530;2023-02-12T07:17:37;31.90;;;6.83;;
13425;SDS011;6785;57.918;12.530;2023-02-12T07:20:04;31.73;;;5.97;;
13425;SDS011;6785;57.918;12.530;2023-02-12T07:22:35;29.87;;;6.27;;
13425;SDS011;6785;57.918;12.530;2023-02-12T07:25:02;26.77;;;6.27;;
13425;SDS011;6785;57.918;12.530;2023-02-12T07:27:29;29.97;;;6.33;;
13425;SDS011;6785;57.918;12.530;2023-02-12T07:29:56;26.33;;;6.87;;
13425;SDS011;6785;57.918;12.530;2023-02-12T07:32:22;31.37;;;6.43;;
13425;SDS011;6785;57.918;12.530;2023-02-12T07:34:49;30.40;;;6.13;;
13425;SDS011;6785;57.918;12.530;2023-02-12T07:37:16;37.90;;;6.23;;
13425;SDS011;6785;57.918;12.530;2023-02-12T07:39:47;33.97;;;6.83;;
13425;SDS011;6785;57.918;12.530;2023-02-12T07:42:14;40.20;;;6.17;;
13425;SDS011;6785;57.918;12.530;2023-02-12T07:44:41;25.93;;;6.83;;
13425;SDS011;6785;57.918;12.530;2023-02-12T07:47:08;31.27;;;6.77;;
13425;SDS011;6785;57.918;12.530;2023-02-12T07:49:35;40.70;;;6.93;;
13425;SDS011;6785;57.918;12.530;2023-02-12T07:52:02;38.67;;;5.27;;
13425;SDS011;6785;57.918;12.530;2023-02-12T07:54:28;34.70;;;5.70;;
13425;SDS011;6785;57.918;12.530;2023-02-12T07:56:56;38.93;;;6.37;;
13425;SDS011;6785;57.918;12.530;2023-02-12T07:59:24;35.73;;;6.03;;
13425;SDS011;6785;57.918;12.530;2023-02-12T08:01:52;36.43;;;5.77;;
13425;SDS011;6785;57.918;12.530;2023-02-12T08:04:20;30.07;;;5.43;;
13425;SDS011;6785;57.918;12.530;2023-02-12T08:06:49;45.13;;;6.33;;
13425;SDS011;6785;57.918;12.530;2023-02-12T08:09:18;38.03;;;6.30;;
13425;SDS011;6785;57.918;12.530;2023-02-12T08:11:45;40.17;;;6.57;;
13425;SDS011;6785;57.918;12.530;2023-02-12T08:14:14;46.77;;;6.67;;
13425;SDS011;6785;57.918;12.530;2023-02-12T08:16:42;48.60;;;5.97;;
13425;SDS011;6785;57.918;12.530;2023-02-12T08:19:10;31.77;;;5.53;;
13425;SDS011;6785;57.918;12.530;2023-02-12T08:21:37;38.80;;;5.87;;
13425;SDS011;6785;57.918;12.530;2023-02-12T08:24:04;38.47;;;6.77;;
13425;SDS011;6785;57.918;12.530;2023-02-12T08:26:32;47.40;;;5.40;;
13425;SDS011;6785;57.918;12.530;2023-02-12T08:29:01;36.23;;;5.30;;
13425;SDS011;6785;57.918;12.530;2023-02-12T08:31:31;44.17;;;6.80;;
13425;SDS011;6785;57.918;12.530;2023-02-12T08:33:59;45.23;;;5.63;;
13425;SDS011;6785;57.918;12.530;2023-02-12T08:36:27;44.53;;;6.80;;
13425;SDS011;6785;57.918;12.530;2023-02-12T08:38:56;40.20;;;5.50;;
13425;SDS011;6785;57.918;12.530;2023-02-12T08:41:24;48.03;;;5.90;;
13425;SDS011;6785;57.918;12.530;2023-02-12T08:43:52;34.60;;;5.23;;
13425;SDS011;6785;57.918;12.530;2023-02-12T08:46:21;34.30;;;5.63;;
13425;SDS011;6785;57.918;12.530;2023-02-12T08:48:52;42.00;;;6.00;;
13425;SDS011;6785;57.918;12.530;2023-02-12T08:51:21;44.40;;;5.90;;
13425;SDS011;6785;57.918;12.530;2023-02-12T08:53:51;36.30;;;5.47;;
13425;SDS011;6785;57.918;12.530;2023-02-12T08:56:18;41.53;;;6.20;;
13425;SDS011;6785;57.918;12.530;2023-02-12T08:58:45;44.77;;;5.37;;
13425;SDS011;6785;57.918;12.530;2023-02-12T09:01:13;34.90;;;5.17;;
13425;SDS011;6785;57.918;12.530;2023-02-12T09:03:41;42.77;;;5.70;;
13425;SDS011;6785;57.918;12.530;2023-02-12T09:06:09;37.83;;;5.20;;
13425;SDS011;6785;57.918;12.530;2023-02-12T09:08:36;38.10;;;5.73;;
13425;SDS011;6785;57.918;12.530;2023-02-12T09:11:05;33.23;;;5.67;;
13425;SDS011;6785;57.918;12.530;2023-02-12T09:13:33;41.60;;;6.03;;
13425;SDS011;6785;57.918;12.530;2023-02-12T09:16:01;43.80;;;6.40;;
13425;SDS011;6785;57.918;12.530;2023-02-12T09:18:29;31.20;;;5.80;;
13425;SDS011;6785;57.918;12.530;2023-02-12T09:20:59;46.03;;;5.90;;
13425;SDS011;6785;57.918;12.530;2023-02-12T09:23:28;43.17;;;6.73;;
13425;SDS011;6785;57.918;12.530;2023-02-12T09:25:54;49.30;;;5.90;;
13425;SDS011;6785;57.918;12.530;2023-02-12T09:28:21;39.00;;;6.03;;
13425;SDS011;6785;57.918;12.530;2023-02-12T09:30:48;29.27;;;5.47;;
13425;SDS011;6785;57.918;12.530;2023-02-12T09:33:15;36.27;;;5.57;;
13425;SDS011;6785;57.918;12.530;2023-02-12T09:35:42;48.00;;;6.30;;
13425;SDS011;6785;57.918;12.530;2023-02-12T09:38:09;34.83;;;6.10;;
13425;SDS011;6785;57.918;12.530;2023-02-12T09:40:38;43.20;;;6.10;;
13425;SDS011;6785;57.918;12.530;2023-02-12T09:43:16;29.90;;;5.17;;
13425;SDS011;6785;57.918;12.530;2023-02-12T09:45:51;50.30;;;6.03;;
13425;SDS011;6785;57.918;12.530;2023-02-12T09:48:36;26.77;;;4.80;;
13425;SDS011;6785;57.918;12.530;2023-02-12T09:51:08;26.63;;;4.50;;
13425;SDS011;6785;57.918;12.530;2023-02-12T09:53:37;32.67;;;5.43;;
13425;SDS011;6785;57.918;12.530;2023-02-12T09:56:10;26.23;;;4.97;;
13425;SDS011;6785;57.918;12.530;2023-02-12T09:58:40;28.27;;;4.77;;
13425;SDS011;6785;57.918;12.530;2023-02-12T10:01:12;32.10;;;5.00;;
13425;SDS011;6785;57.918;12.530;2023-02-12T10:03:39;46.43;;;6.30;;
13425;SDS011;6785;57.918;12.530;2023-02-12T10:06:07;30.60;;;5.47;;
13425;SDS011;6785;57.918;12.530;2023-02-12T10:08:43;27.30;;;4.57;;
13425;SDS011;6785;57.918;12.530;2023-02-12T10:11:22;28.37;;;5.57;;
13425;SDS011;6785;57.918;12.530;2023-02-12T10:14:04;26.73;;;4.13;;
13425;SDS011;6785;57.918;12.530;2023-02-12T10:16:43;35.23;;;5.07;;
13425;SDS011;6785;57.918;12.530;2023-02-12T10:19:21;24.50;;;5.63;;
13425;SDS011;6785;57.918;12.530;2023-02-12T10:21:59;29.63;;;4.73;;
13425;SDS011;6785;57.918;12.530;2023-02-12T10:24:39;28.07;;;4.63;;
13425;SDS011;6785;57.918;12.530;2023-02-12T10:27:30;26.60;;;5.20;;
13425;SDS011;6785;57.918;12.530;2023-02-12T10:30:03;31.57;;;5.67;;
13425;SDS011;6785;57.918;12.530;2023-02-12T10:32:40;29.13;;;5.77;;
13425;SDS011;6785;57.918;12.530;2023-02-12T10:35:12;25.53;;;5.23;;
13425;SDS011;6785;57.918;12.530;2023-02-12T10:37:41;28.37;;;4.40;;
13425;SDS011;6785;57.918;12.530;2023-02-12T10:40:14;22.00;;;5.87;;
13425;SDS011;6785;57.918;12.530;2023-02-12T10:42:45;31.90;;;4.90;;
13425;SDS011;6785;57.918;12.530;2023-02-12T10:45:14;22.90;;;4.40;;
13425;SDS011;6785;57.918;12.530;2023-02-12T10:47:42;26.43;;;4.90;;
13425;SDS011;6785;57.918;12.530;2023-02-12T10:50:16;27.10;;;5.30;;
13425;SDS011;6785;57.918;12.530;2023-02-12T10:52:48;20.80;;;4.57;;
13425;SDS011;6785;57.918;12.530;2023-02-12T10:55:22;22.03;;;4.47;;
13425;SDS011;6785;57.918;12.530;2023-02-12T10:57:52;23.80;;;4.87;;
13425;SDS011;6785;57.918;12.530;2023-02-12T11:00:23;23.97;;;4.53;;
13425;SDS011;6785;57.918;12.530;2023-02-12T11:03:03;22.07;;;5.07;;
13425;SDS011;6785;57.918;12.530;2023-02-12T11:05:32;20.50;;;4.00;;
13425;SDS011;6785;57.918;12.530;2023-02-12T11:08:01;15.60;;;4.53;;
13425;SDS011;6785;57.918;12.530;2023-02-12T11:10:29;27.80;;;5.00;;
13425;SDS011;6785;57.918;12.530;2023-02-12T11:13:01;27.33;;;5.10;;
13425;SDS011;6785;57.918;12.530;2023-02-12T11:15:28;20.80;;;4.40;;
13425;SDS011;6785;57.918;12.530;2023-02-12T11:18:00;24.07;;;4.37;;
13425;SDS011;6785;57.918;12.530;2023-02-12T11:20:31;15.57;;;4.00;;
13425;SDS011;6785;57.918;12.530;2023-02-12T11:23:03;31.00;;;5.70;;
13425;SDS011;6785;57.918;12.530;2023-02-12T11:25:33;18.00;;;3.97;;
13425;SDS011;6785;57.918;12.530;2023-02-12T11:28:04;21.80;;;4.30;;
13425;SDS011;6785;57.918;12.530;2023-02-12T11:30:47;17.63;;;4.43;;
13425;SDS011;6785;57.918;12.530;2023-02-12T11:33:20;21.20;;;4.23;;
13425;SDS011;6785;57.918;12.530;2023-02-12T11:35:50;22.90;;;4.57;;
13425;SDS011;6785;57.918;12.530;2023-02-12T11:38:20;23.77;;;4.80;;
13425;SDS011;6785;57.918;12.530;2023-02-12T11:40:51;17.43;;;4.40;;
13425;SDS011;6785;57.918;12.530;2023-02-12T11:43:23;14.27;;;3.60;;
13425;SDS011;6785;57.918;12.530;2023-02-12T11:45:50;20.07;;;4.03;;
13425;SDS011;6785;57.918;12.530;2023-02-12T11:48:21;21.10;;;4.20;;
13425;SDS011;6785;57.918;12.530;2023-02-12T11:50:50;19.30;;;3.30;;
13425;SDS011;6785;57.918;12.530;2023-02-12T11:53:19;18.60;;;3.70;;
13425;SDS011;6785;57.918;12.530;2023-02-12T11:55:52;13.70;;;3.23;;
13425;SDS011;6785;57.918;12.530;2023-02-12T11:58:23;17.40;;;3.73;;
13425;SDS011;6785;57.918;12.530;2023-02-12T12:00:52;19.40;;;3.47;;
13425;SDS011;6785;57.918;12.530;2023-02-12T12:03:35;16.73;;;3.20;;
13425;SDS011;6785;57.918;12.530;2023-02-12T12:06:08;16.67;;;3.67;;
13425;SDS011;6785;57.918;12.530;2023-02-12T12:08:46;14.63;;;3.70;;
13425;SDS011;6785;57.918;12.530;2023-02-12T12:11:17;14.27;;;3.13;;
13425;SDS011;6785;57.918;12.530;2023-02-12T12:13:49;19.97;;;3.57;;
13425;SDS011;6785;57.918;12.530;2023-02-12T12:16:23;22.07;;;3.53;;
13425;SDS011;6785;57.918;12.530;2023-02-12T12:19:13;19.47;;;2.93;;
13425;SDS011;6785;57.918;12.530;2023-02-12T12:22:03;13.47;;;3.07;;
13425;SDS011;6785;57.918;12.530;2023-02-12T12:24:37;15.37;;;2.90;;
13425;SDS011;6785;57.918;12.530;2023-02-12T12:27:09;12.77;;;3.17;;
13425;SDS011;6785;57.918;12.530;2023-02-12T12:30:12;16.67;;;2.40;;
13425;SDS011;6785;57.918;12.530;2023-02-12T12:32:45;19.97;;;3.50;;
13425;SDS011;6785;57.918;12.530;2023-02-12T12:35:14;12.47;;;2.77;;
13425;SDS011;6785;57.918;12.530;2023-02-12T12:37:47;16.77;;;2.83;;
13425;SDS011;6785;57.918;12.530;2023-02-12T12:40:29;13.27;;;2.97;;
13425;SDS011;6785;57.918;12.530;2023-02-12T12:43:08;11.57;;;2.90;;
13425;SDS011;6785;57.918;12.530;2023-02-12T12:45:49;10.17;;;2.30;;
13425;SDS011;6785;57.918;12.530;2023-02-12T12:48:37;13.93;;;3.50;;
13425;SDS011;6785;57.918;12.530;2023-02-12T12:51:24;8.63;;;2.10;;
13425;SDS011;6785;57.918;12.530;2023-02-12T12:54:09;9.47;;;2.67;;
13425;SDS011;6785;57.918;12.530;2023-02-12T12:56:53;12.93;;;2.80;;
13425;SDS011;6785;57.918;12.530;2023-02-12T12:59:30;11.93;;;2.60;;
13425;SDS011;6785;57.918;12.530;2023-02-12T13:02:17;12.13;;;2.20;;
13425;SDS011;6785;57.918;12.530;2023-02-12T13:08:07;13.43;;;3.40;;
13425;SDS011;6785;57.918;12.530;2023-02-12T13:10:43;12.47;;;3.40;;
13425;SDS011;6785;57.918;12.530;2023-02-12T13:13:23;12.17;;;2.87;;
13425;SDS011;6785;57.918;12.530;2023-02-12T13:15:55;11.77;;;2.53;;
13425;SDS011;6785;57.918;12.530;2023-02-12T13:18:34;10.77;;;2.20;;
13425;SDS011;6785;57.918;12.530;2023-02-12T13:21:11;11.47;;;2.47;;
13425;SDS011;6785;57.918;12.530;2023-02-12T13:23:45;12.83;;;2.70;;
13425;SDS011;6785;57.918;12.530;2023-02-12T13:26:21;9.83;;;2.27;;
13425;SDS011;6785;57.918;12.530;2023-02-12T13:28:55;8.73;;;2.67;;
13425;SDS011;6785;57.918;12.530;2023-02-12T13:31:26;9.17;;;2.57;;
13425;SDS011;6785;57.918;12.530;2023-02-12T13:33:57;14.00;;;2.93;;
13425;SDS011;6785;57.918;12.530;2023-02-12T13:36:27;12.33;;;2.40;;
13425;SDS011;6785;57.918;12.530;2023-02-12T13:38:55;9.67;;;2.60;;
13425;SDS011;6785;57.918;12.530;2023-02-12T13:41:26;15.50;;;3.57;;
13425;SDS011;6785;57.918;12.530;2023-02-12T13:44:05;13.67;;;3.03;;
13425;SDS011;6785;57.918;12.530;2023-02-12T13:46:45;17.60;;;2.90;;
13425;SDS011;6785;57.918;12.530;2023-02-12T13:49:24;13.23;;;2.73;;
13425;SDS011;6785;57.918;12.530;2023-02-12T13:52:01;11.73;;;2.30;;
13425;SDS011;6785;57.918;12.530;2023-02-12T13:54:35;5.83;;;2.20;;
13425;SDS011;6785;57.918;12.530;2023-02-12T13:57:13;10.33;;;2.70;;
13425;SDS011;6785;57.918;12.530;2023-02-12T13:59:42;8.47;;;2.50;;
13425;SDS011;6785;57.918;12.530;2023-02-12T14:02:23;8.30;;;2.47;;
13425;SDS011;6785;57.918;12.530;2023-02-12T14:05:14;11.33;;;2.70;;
13425;SDS011;6785;57.918;12.530;2023-02-12T14:07:50;9.40;;;2.13;;
13425;SDS011;6785;57.918;12.530;2023-02-12T14:10:20;9.33;;;2.17;;
13425;SDS011;6785;57.918;12.530;2023-02-12T14:12:53;7.03;;;1.90;;
13425;SDS011;6785;57.918;12.530;2023-02-12T14:15:30;6.70;;;2.20;;
13425;SDS011;6785;57.918;12.530;2023-02-12T14:20:58;7.70;;;2.53;;
13425;SDS011;6785;57.918;12.530;2023-02-12T14:27:16;15.40;;;2.40;;
13425;SDS011;6785;57.918;12.530;2023-02-12T14:33:09;12.20;;;3.17;;
13425;SDS011;6785;57.918;12.530;2023-02-12T14:35:44;12.67;;;3.67;;
13425;SDS011;6785;57.918;12.530;2023-02-12T14:41:28;12.63;;;2.77;;
13425;SDS011;6785;57.918;12.530;2023-02-12T14:47:10;11.43;;;2.63;;
13425;SDS011;6785;57.918;12.530;2023-02-12T14:49:56;13.00;;;3.00;;
13425;SDS011;6785;57.918;12.530;2023-02-12T14:52:27;6.70;;;2.10;;
13425;SDS011;6785;57.918;12.530;2023-02-12T14:54:58;7.67;;;2.10;;
13425;SDS011;6785;57.918;12.530;2023-02-12T14:57:29;8.20;;;2.50;;
13425;SDS011;6785;57.918;12.530;2023-02-12T14:59:58;9.70;;;2.83;;
13425;SDS011;6785;57.918;12.530;2023-02-12T15:02:29;11.20;;;2.77;;
13425;SDS011;6785;57.918;12.530;2023-02-12T15:05:00;18.13;;;4.03;;
13425;SDS011;6785;57.918;12.530;2023-02-12T15:07:30;10.20;;;3.03;;
13425;SDS011;6785;57.918;12.530;2023-02-12T15:10:03;9.70;;;3.10;;
13425;SDS011;6785;57.918;12.530;2023-02-12T15:12:36;11.97;;;2.60;;
13425;SDS011;6785;57.918;12.530;2023-02-12T15:15:09;12.17;;;2.40;;
13425;SDS011;6785;57.918;12.530;2023-02-12T15:17:40;11.20;;;2.60;;
13425;SDS011;6785;57.918;12.530;2023-02-12T15:20:18;13.57;;;2.67;;
13425;SDS011;6785;57.918;12.530;2023-02-12T15:22:46;12.57;;;2.93;;
13425;SDS011;6785;57.918;12.530;2023-02-12T15:25:16;13.07;;;3.13;;
13425;SDS011;6785;57.918;12.530;2023-02-12T15:27:49;11.13;;;2.50;;